createdAt,value
2019-03-24T00:02:09.161Z,16.50
2019-03-24T00:04:39.447Z,16.47
2019-03-24T00:07:09.678Z,17.23
2019-03-24T00:09:39.961Z,16.93
2019-03-24T00:12:10.190Z,16.87
2019-03-24T00:14:41.430Z,17.13
2019-03-24T00:17:11.823Z,17.73
2019-03-24T00:19:42.265Z,17.77
2019-03-24T00:22:12.643Z,18.27
2019-03-24T00:24:44.823Z,18.10
2019-03-24T00:27:14.890Z,18.20
2019-03-24T00:29:45.190Z,17.83
2019-03-24T00:32:16.584Z,18.07
2019-03-24T00:34:49.030Z,17.40
2019-03-24T00:37:19.461Z,18.13
2019-03-24T00:39:49.822Z,18.07
2019-03-24T00:42:20.350Z,20.17
2019-03-24T00:44:50.640Z,19.27
2019-03-24T00:47:21.023Z,19.43
2019-03-24T00:49:54.931Z,17.87
2019-03-24T00:52:25.190Z,19.60
2019-03-24T00:54:55.575Z,18.20
2019-03-24T00:57:26.005Z,18.77
2019-03-24T00:59:56.279Z,17.87
2019-03-24T01:02:26.583Z,17.13
2019-03-24T01:04:57.008Z,17.37
2019-03-24T01:07:27.239Z,17.57
2019-03-24T01:09:57.498Z,18.13
2019-03-24T01:12:27.815Z,18.27
2019-03-24T01:14:58.106Z,18.20
2019-03-24T01:17:28.450Z,19.33
2019-03-24T01:19:59.802Z,18.37
2019-03-24T01:22:30.277Z,18.20
2019-03-24T01:25:00.592Z,18.60
2019-03-24T01:27:30.860Z,18.40
2019-03-24T01:30:01.966Z,18.63
2019-03-24T01:32:32.294Z,19.17
2019-03-24T01:35:07.610Z,17.73
2019-03-24T01:37:38.850Z,17.60
2019-03-24T01:40:09.727Z,17.53
2019-03-24T01:42:40.033Z,18.03
2019-03-24T01:45:11.005Z,17.27
2019-03-24T01:47:41.362Z,17.70
2019-03-24T01:50:12.647Z,17.73
2019-03-24T01:52:43.095Z,17.73
2019-03-24T01:55:13.441Z,16.73
2019-03-24T01:57:43.899Z,16.97
2019-03-24T02:00:15.140Z,19.00
2019-03-24T02:02:45.924Z,17.73
2019-03-24T02:05:16.559Z,17.23
2019-03-24T02:07:46.878Z,18.80
2019-03-24T02:10:21.078Z,18.00
2019-03-24T02:12:51.378Z,18.03
2019-03-24T02:15:21.746Z,18.10
2019-03-24T02:17:54.386Z,17.93
2019-03-24T02:20:25.158Z,19.03
2019-03-24T02:22:55.421Z,18.93
2019-03-24T02:25:25.741Z,19.23
2019-03-24T02:27:56.287Z,20.17
2019-03-24T02:30:26.786Z,19.73
2019-03-24T02:32:57.037Z,19.63
2019-03-24T02:35:27.463Z,19.33
2019-03-24T02:37:57.899Z,18.20
2019-03-24T02:40:28.596Z,19.20
2019-03-24T02:42:58.938Z,20.70
2019-03-24T02:45:29.242Z,18.33
2019-03-24T02:47:59.671Z,19.17
2019-03-24T02:50:29.973Z,18.10
2019-03-24T02:53:00.219Z,21.20
2019-03-24T02:55:30.591Z,17.90
2019-03-24T02:58:00.945Z,19.80
2019-03-24T03:00:31.272Z,18.47
2019-03-24T03:03:01.656Z,19.10
2019-03-24T03:05:32.144Z,19.97
2019-03-24T03:08:02.569Z,20.17
2019-03-24T03:10:32.953Z,19.23
2019-03-24T03:13:03.296Z,20.60
2019-03-24T03:15:33.629Z,19.83
2019-03-24T03:18:03.994Z,20.47
2019-03-24T03:20:34.867Z,20.67
2019-03-24T03:23:05.110Z,21.40
2019-03-24T03:25:35.335Z,20.67
2019-03-24T03:28:05.606Z,19.90
2019-03-24T03:30:36.600Z,20.17
2019-03-24T03:33:08.009Z,21.17
2019-03-24T03:35:38.277Z,19.27
2019-03-24T03:38:08.701Z,19.90
2019-03-24T03:40:39.749Z,21.57
2019-03-24T03:43:10.162Z,20.90
2019-03-24T03:45:40.392Z,21.97
2019-03-24T03:48:10.634Z,22.07
2019-03-24T03:50:40.960Z,20.40
2019-03-24T03:53:11.362Z,20.83
2019-03-24T03:55:41.765Z,20.67
2019-03-24T03:58:12.074Z,21.97
2019-03-24T04:00:42.397Z,19.63
2019-03-24T04:03:12.686Z,20.90
2019-03-24T04:05:43.629Z,22.27
2019-03-24T04:08:13.893Z,20.27
2019-03-24T04:10:44.181Z,22.50
2019-03-24T04:13:14.565Z,22.10
2019-03-24T04:15:45.947Z,23.23
2019-03-24T04:18:16.361Z,23.90
2019-03-24T04:20:46.839Z,22.10
2019-03-24T04:23:17.210Z,22.47
2019-03-24T04:25:49.519Z,23.40
2019-03-24T04:28:19.859Z,23.40
2019-03-24T04:30:50.275Z,24.57
2019-03-24T04:33:20.642Z,24.47
2019-03-24T04:35:51.075Z,25.77
2019-03-24T04:38:21.321Z,25.17
2019-03-24T04:40:51.570Z,23.93
2019-03-24T04:43:21.895Z,22.63
2019-03-24T04:45:52.187Z,23.07
2019-03-24T04:48:22.549Z,22.07
2019-03-24T04:50:54.314Z,25.03
2019-03-24T04:53:25.772Z,23.87
2019-03-24T04:55:56.360Z,24.73
2019-03-24T04:58:26.889Z,23.00
2019-03-24T05:00:57.249Z,23.50
2019-03-24T05:03:28.519Z,22.37
2019-03-24T05:05:59.030Z,22.83
2019-03-24T05:08:29.318Z,22.60
2019-03-24T05:10:59.669Z,23.20
2019-03-24T05:13:29.958Z,24.27
2019-03-24T05:16:02.598Z,23.67
2019-03-24T05:18:32.811Z,24.93
2019-03-24T05:21:03.141Z,24.97
2019-03-24T05:23:33.509Z,23.70
2019-03-24T05:26:04.109Z,24.03
2019-03-24T05:28:34.499Z,24.47
2019-03-24T05:31:04.850Z,23.30
2019-03-24T05:33:35.211Z,23.57
2019-03-24T05:36:05.546Z,25.03
2019-03-24T05:38:35.806Z,24.37
2019-03-24T05:41:06.109Z,24.03
2019-03-24T05:43:36.577Z,25.27
2019-03-24T05:46:06.968Z,24.33
2019-03-24T05:48:37.356Z,25.90
2019-03-24T05:51:07.663Z,25.00
2019-03-24T05:53:37.945Z,24.83
2019-03-24T05:56:08.374Z,24.90
2019-03-24T05:58:38.622Z,26.23
2019-03-24T06:01:09.033Z,27.90
2019-03-24T06:03:39.234Z,27.63
2019-03-24T06:06:09.581Z,27.40
2019-03-24T06:08:39.914Z,27.93
2019-03-24T06:11:10.254Z,27.40
2019-03-24T06:13:40.585Z,26.50
2019-03-24T06:16:10.885Z,27.43
2019-03-24T06:18:41.222Z,24.30
2019-03-24T06:21:11.453Z,24.73
2019-03-24T06:23:41.741Z,27.77
2019-03-24T06:26:12.054Z,27.03
2019-03-24T06:28:42.386Z,25.60
2019-03-24T06:31:12.581Z,26.37
2019-03-24T06:33:44.204Z,27.93
2019-03-24T06:36:14.497Z,28.60
2019-03-24T06:38:44.832Z,30.47
2019-03-24T06:41:15.181Z,32.10
2019-03-24T06:43:45.477Z,34.30
2019-03-24T06:46:15.807Z,34.97
2019-03-24T06:48:46.114Z,36.47
2019-03-24T06:51:16.381Z,36.33
2019-03-24T06:53:46.749Z,36.87
2019-03-24T06:56:17.043Z,37.80
2019-03-24T06:58:47.356Z,37.30
2019-03-24T07:01:17.619Z,37.83
2019-03-24T07:03:47.963Z,38.00
2019-03-24T07:06:18.322Z,40.37
2019-03-24T07:08:48.634Z,38.47
2019-03-24T07:11:18.918Z,39.30
2019-03-24T07:13:49.209Z,40.27
2019-03-24T07:16:19.594Z,39.93
2019-03-24T07:18:50.025Z,37.23
2019-03-24T07:21:20.298Z,37.73
2019-03-24T07:23:50.577Z,38.13
2019-03-24T07:26:20.961Z,38.23
2019-03-24T07:28:51.293Z,38.33
2019-03-24T07:31:21.488Z,37.93
2019-03-24T07:33:51.725Z,38.57
2019-03-24T07:36:22.065Z,39.33
2019-03-24T07:38:52.418Z,39.33
2019-03-24T07:41:22.626Z,39.40
2019-03-24T07:43:52.962Z,36.50
2019-03-24T07:46:23.291Z,37.23
2019-03-24T07:48:53.634Z,39.37
2019-03-24T07:51:23.917Z,37.33
2019-03-24T07:53:54.305Z,36.63
2019-03-24T07:56:24.557Z,38.10
2019-03-24T07:58:54.875Z,38.90
2019-03-24T08:01:25.199Z,38.17
2019-03-24T08:03:55.473Z,38.57
2019-03-24T08:06:25.789Z,38.93
2019-03-24T08:08:56.117Z,38.23
2019-03-24T08:11:26.414Z,38.83
2019-03-24T08:13:56.737Z,37.10
2019-03-24T08:16:27.096Z,36.37
2019-03-24T08:18:57.443Z,36.87
2019-03-24T08:21:27.714Z,35.60
2019-03-24T08:23:58.062Z,38.03
2019-03-24T08:26:28.376Z,36.37
2019-03-24T08:28:58.597Z,37.93
2019-03-24T08:31:28.937Z,37.17
2019-03-24T08:33:59.137Z,36.97
2019-03-24T08:36:29.567Z,36.17
2019-03-24T08:38:59.978Z,38.25
2019-03-24T08:41:31.514Z,35.00
2019-03-24T08:44:01.807Z,34.17
2019-03-24T08:46:32.042Z,34.43
2019-03-24T08:49:02.367Z,34.60
2019-03-24T08:51:32.609Z,34.23
2019-03-24T08:54:02.942Z,33.60
2019-03-24T08:56:33.278Z,33.23
2019-03-24T08:59:03.488Z,32.50
2019-03-24T09:01:33.774Z,32.28
2019-03-24T09:04:04.009Z,32.67
2019-03-24T09:06:34.246Z,33.60
2019-03-24T09:09:06.041Z,30.70
2019-03-24T09:11:36.305Z,32.73
2019-03-24T09:14:06.619Z,33.42
2019-03-24T09:16:36.930Z,30.72
2019-03-24T09:19:07.287Z,31.33
2019-03-24T09:21:37.658Z,29.90
2019-03-24T09:24:07.978Z,30.85
2019-03-24T09:26:38.300Z,30.12
2019-03-24T09:29:08.523Z,30.23
2019-03-24T09:31:38.763Z,32.73
2019-03-24T09:34:08.983Z,30.55
2019-03-24T09:36:39.212Z,32.08
2019-03-24T09:39:09.869Z,30.12
2019-03-24T09:41:40.151Z,30.48
2019-03-24T09:44:10.445Z,33.25
2019-03-24T09:46:41.269Z,30.90
2019-03-24T09:49:11.545Z,29.37
2019-03-24T09:51:41.823Z,33.18
2019-03-24T09:54:12.118Z,29.85
2019-03-24T09:56:42.497Z,29.20
2019-03-24T09:59:12.741Z,31.85
2019-03-24T10:01:43.079Z,28.80
2019-03-24T10:04:13.273Z,32.33
2019-03-24T10:06:43.492Z,30.60
2019-03-24T10:09:13.807Z,28.05
2019-03-24T10:11:44.061Z,30.95
2019-03-24T10:14:14.265Z,31.23
2019-03-24T10:16:44.602Z,29.65
2019-03-24T10:19:14.856Z,33.15
2019-03-24T10:21:45.195Z,31.27
2019-03-24T10:24:15.479Z,28.52
2019-03-24T10:26:45.746Z,30.45
2019-03-24T10:29:16.031Z,29.32
2019-03-24T10:31:46.398Z,30.08
2019-03-24T10:34:16.685Z,26.93
2019-03-24T10:36:47.020Z,31.65
2019-03-24T10:39:17.237Z,29.77
2019-03-24T10:41:47.613Z,31.00
2019-03-24T10:44:17.947Z,28.27
2019-03-24T10:46:48.368Z,30.32
2019-03-24T10:49:24.847Z,26.75
2019-03-24T10:51:50.783Z,29.63
2019-03-24T10:54:20.977Z,29.12
2019-03-24T10:56:51.153Z,30.68
2019-03-24T10:59:21.366Z,29.25
2019-03-24T11:01:51.591Z,30.68
2019-03-24T11:04:21.886Z,28.55
2019-03-24T11:06:52.185Z,30.60
2019-03-24T11:09:22.535Z,29.87
2019-03-24T11:11:52.832Z,29.52
2019-03-24T11:14:22.981Z,28.38
2019-03-24T11:16:53.188Z,29.27
2019-03-24T11:19:35.066Z,28.57
2019-03-24T11:21:56.341Z,26.12
2019-03-24T11:24:26.581Z,28.92
2019-03-24T11:26:56.810Z,27.73
2019-03-24T11:29:27.058Z,29.60
2019-03-24T11:31:57.269Z,28.00
2019-03-24T11:34:27.507Z,27.65
2019-03-24T11:36:57.709Z,26.33
2019-03-24T11:39:27.864Z,30.05
2019-03-24T11:41:58.084Z,27.25
2019-03-24T11:44:29.636Z,30.65
2019-03-24T11:46:59.982Z,28.60
2019-03-24T11:49:30.272Z,28.17
2019-03-24T11:52:00.636Z,24.37
2019-03-24T11:54:31.025Z,26.85
2019-03-24T11:57:01.306Z,26.20
2019-03-24T11:59:31.529Z,29.35
2019-03-24T12:02:01.761Z,26.35
2019-03-24T12:04:32.093Z,27.27
2019-03-24T12:07:02.442Z,25.17
2019-03-24T12:09:32.690Z,25.48
2019-03-24T12:12:02.918Z,23.80
2019-03-24T12:14:33.179Z,23.85
2019-03-24T12:17:03.430Z,25.43
2019-03-24T12:19:33.661Z,25.00
2019-03-24T12:22:04.031Z,26.77
2019-03-24T12:24:34.308Z,26.52
2019-03-24T12:27:04.714Z,29.48
2019-03-24T12:29:35.089Z,28.02
2019-03-24T12:32:05.330Z,25.95
2019-03-24T12:34:35.510Z,28.10
2019-03-24T12:37:05.943Z,30.00
2019-03-24T12:39:36.293Z,28.32
2019-03-24T12:42:06.473Z,24.75
2019-03-24T12:44:36.649Z,24.57
2019-03-24T12:47:06.847Z,26.57
2019-03-24T12:49:37.106Z,25.72
2019-03-24T12:52:07.413Z,26.57
2019-03-24T12:54:37.602Z,27.07
2019-03-24T12:57:07.907Z,23.50
2019-03-24T12:59:38.181Z,23.83
2019-03-24T13:02:08.388Z,28.52
2019-03-24T13:04:38.757Z,28.20
2019-03-24T13:07:08.997Z,28.00
2019-03-24T13:09:39.229Z,24.43
2019-03-24T13:12:09.440Z,28.60
2019-03-24T13:14:39.759Z,30.77
2019-03-24T13:17:10.005Z,29.57
2019-03-24T13:19:40.202Z,26.62
2019-03-24T13:22:10.521Z,37.10
2019-03-24T13:24:40.871Z,46.18
2019-03-24T13:27:11.086Z,27.52
2019-03-24T13:29:41.432Z,25.57
2019-03-24T13:32:11.714Z,24.27
2019-03-24T13:34:42.058Z,24.23
2019-03-24T13:37:12.313Z,23.75
2019-03-24T13:39:42.585Z,27.75
2019-03-24T13:42:12.905Z,26.82
2019-03-24T13:44:43.129Z,25.68
2019-03-24T13:47:13.509Z,24.95
2019-03-24T13:49:43.832Z,27.98
2019-03-24T13:52:15.251Z,26.85
2019-03-24T13:54:45.501Z,26.45
2019-03-24T13:57:15.913Z,21.17
2019-03-24T13:59:46.233Z,25.48
2019-03-24T14:02:16.537Z,24.55
2019-03-24T14:04:47.608Z,23.92
2019-03-24T14:07:18.121Z,29.27
2019-03-24T14:09:48.610Z,29.35
2019-03-24T14:12:18.878Z,22.55
2019-03-24T14:14:49.137Z,26.50
2019-03-24T14:17:19.422Z,26.07
2019-03-24T14:19:49.754Z,28.70
2019-03-24T14:22:20.058Z,27.10
2019-03-24T14:24:50.306Z,22.70
2019-03-24T14:27:20.674Z,25.17
2019-03-24T14:29:51.007Z,23.77
2019-03-24T14:32:21.281Z,24.43
2019-03-24T14:34:51.490Z,25.62
2019-03-24T14:37:21.776Z,26.23
2019-03-24T14:39:51.985Z,25.00
2019-03-24T14:42:22.321Z,26.15
2019-03-24T14:44:52.557Z,23.57
2019-03-24T14:47:22.736Z,25.90
2019-03-24T14:49:52.960Z,24.95
2019-03-24T14:52:23.326Z,26.80
2019-03-24T14:54:53.683Z,25.82
2019-03-24T14:57:23.989Z,27.48
2019-03-24T14:59:54.258Z,25.88
2019-03-24T15:02:24.470Z,29.52
2019-03-24T15:04:54.830Z,24.02
2019-03-24T15:07:42.809Z,25.15
2019-03-24T15:10:17.173Z,28.45
2019-03-24T15:12:47.446Z,28.02
2019-03-24T15:15:17.815Z,28.50
2019-03-24T15:17:49.247Z,27.13
2019-03-24T15:20:20.803Z,26.95
2019-03-24T15:22:52.436Z,29.55
2019-03-24T15:25:23.818Z,28.12
2019-03-24T15:27:54.158Z,24.72
2019-03-24T15:30:24.561Z,29.27
2019-03-24T15:32:54.792Z,29.25
2019-03-24T15:35:25.004Z,28.57
2019-03-24T15:38:07.831Z,27.50
2019-03-24T15:40:28.625Z,25.43
2019-03-24T15:42:58.862Z,25.62
2019-03-24T15:45:29.185Z,30.60
2019-03-24T15:47:59.465Z,26.37
2019-03-24T15:50:29.809Z,25.15
2019-03-24T15:53:00.100Z,30.65
2019-03-24T15:55:30.362Z,27.80
2019-03-24T15:58:00.592Z,26.02
2019-03-24T16:00:43.001Z,26.85
2019-03-24T16:03:13.414Z,27.82
2019-03-24T16:05:43.725Z,28.80
2019-03-24T16:08:14.035Z,29.12
2019-03-24T16:10:44.299Z,26.48
2019-03-24T16:13:14.654Z,30.62
2019-03-24T16:15:44.929Z,30.82
2019-03-24T16:18:15.315Z,30.50
2019-03-24T16:20:45.753Z,29.60
2019-03-24T16:23:16.013Z,29.07
2019-03-24T16:25:46.302Z,28.40
2019-03-24T16:28:16.623Z,30.40
2019-03-24T16:30:46.994Z,27.13
2019-03-24T16:33:17.366Z,30.68
2019-03-24T16:35:47.610Z,30.45
2019-03-24T16:38:17.889Z,29.17
2019-03-24T16:40:48.136Z,30.37
2019-03-24T16:43:18.441Z,31.00
2019-03-24T16:45:48.777Z,30.23
2019-03-24T16:48:19.089Z,31.27
2019-03-24T16:50:49.378Z,30.25
2019-03-24T16:53:19.685Z,31.50
2019-03-24T16:55:49.949Z,29.48
2019-03-24T16:58:20.250Z,30.62
2019-03-24T17:00:50.493Z,30.97
2019-03-24T17:03:20.710Z,31.97
2019-03-24T17:05:51.037Z,28.85
2019-03-24T17:08:21.234Z,27.58
2019-03-24T17:10:51.546Z,28.83
2019-03-24T17:13:21.783Z,29.98
2019-03-24T17:15:52.085Z,29.10
2019-03-24T17:18:23.502Z,29.18
2019-03-24T17:20:54.419Z,26.02
2019-03-24T17:23:24.646Z,29.67
2019-03-24T17:25:54.935Z,28.93
2019-03-24T17:28:25.407Z,28.00
2019-03-24T17:30:55.707Z,30.72
2019-03-24T17:33:26.025Z,28.77
2019-03-24T17:35:56.494Z,28.55
2019-03-24T17:38:26.765Z,29.57
2019-03-24T17:40:57.081Z,28.47
2019-03-24T17:43:27.479Z,29.48
2019-03-24T17:45:57.817Z,26.43
2019-03-24T17:48:28.203Z,25.82
2019-03-24T17:50:58.593Z,25.00
2019-03-24T17:53:28.952Z,25.62
2019-03-24T17:55:59.231Z,24.67
2019-03-24T17:58:29.438Z,24.13
2019-03-24T18:00:59.721Z,24.52
2019-03-24T18:03:30.038Z,24.65
2019-03-24T18:06:00.407Z,24.40
2019-03-24T18:08:30.601Z,26.33
2019-03-24T18:11:00.934Z,25.80
2019-03-24T18:13:31.253Z,24.37
2019-03-24T18:16:01.622Z,23.22
2019-03-24T18:18:32.005Z,25.27
2019-03-24T18:21:02.233Z,23.53
2019-03-24T18:23:32.582Z,23.38
2019-03-24T18:26:02.946Z,25.07
2019-03-24T18:28:33.293Z,22.97
2019-03-24T18:31:03.739Z,23.70
2019-03-24T18:33:35.003Z,22.57
2019-03-24T18:36:05.427Z,23.03
2019-03-24T18:38:35.841Z,22.33
2019-03-24T18:41:06.301Z,21.50
2019-03-24T18:43:36.773Z,21.50
2019-03-24T18:46:07.049Z,21.17
2019-03-24T18:48:37.374Z,21.37
2019-03-24T18:51:07.661Z,21.50
2019-03-24T18:53:37.989Z,20.70
2019-03-24T18:56:08.233Z,20.67
2019-03-24T18:58:38.454Z,20.33
2019-03-24T19:01:08.730Z,19.97
2019-03-24T19:03:38.989Z,21.17
2019-03-24T19:06:09.233Z,20.27
2019-03-24T19:08:39.606Z,20.77
2019-03-24T19:11:09.873Z,20.17
2019-03-24T19:13:42.282Z,20.03
2019-03-24T19:16:13.078Z,20.90
2019-03-24T19:18:45.848Z,20.30
2019-03-24T19:21:16.101Z,20.43
2019-03-24T19:23:46.421Z,21.20
2019-03-24T19:26:16.710Z,22.50
2019-03-24T19:28:46.981Z,20.03
2019-03-24T19:31:17.290Z,21.73
2019-03-24T19:33:47.526Z,22.30
2019-03-24T19:36:17.853Z,21.63
2019-03-24T19:38:48.147Z,22.73
2019-03-24T19:41:18.513Z,23.63
2019-03-24T19:43:48.978Z,24.77
2019-03-24T19:46:19.404Z,26.73
2019-03-24T19:48:49.697Z,27.03
2019-03-24T19:51:19.948Z,31.20
2019-03-24T19:53:50.167Z,31.87
2019-03-24T19:56:20.485Z,33.97
2019-03-24T19:58:50.831Z,34.57
2019-03-24T20:01:21.171Z,34.07
2019-03-24T20:03:51.497Z,35.50
2019-03-24T20:06:21.790Z,35.27
2019-03-24T20:08:52.063Z,36.03
2019-03-24T20:11:22.358Z,36.53
2019-03-24T20:13:53.038Z,35.70
2019-03-24T20:16:23.412Z,37.53
2019-03-24T20:18:53.665Z,38.93
2019-03-24T20:21:23.994Z,37.67
2019-03-24T20:23:54.403Z,39.03
2019-03-24T20:26:24.800Z,39.07
2019-03-24T20:28:55.139Z,37.90
2019-03-24T20:31:25.458Z,37.90
2019-03-24T20:33:55.779Z,42.47
2019-03-24T20:36:26.020Z,42.50
2019-03-24T20:38:56.333Z,40.80
2019-03-24T20:41:26.653Z,41.23
2019-03-24T20:43:56.996Z,42.23
2019-03-24T20:46:27.334Z,41.03
2019-03-24T20:48:57.629Z,42.87
2019-03-24T20:51:28.011Z,44.37
2019-03-24T20:53:58.400Z,43.33
2019-03-24T20:56:28.687Z,43.80
2019-03-24T20:58:59.047Z,42.53
2019-03-24T21:01:29.330Z,45.40
2019-03-24T21:03:59.541Z,44.50
2019-03-24T21:06:29.806Z,44.07
2019-03-24T21:09:01.350Z,43.63
2019-03-24T21:11:31.728Z,44.60
2019-03-24T21:14:02.038Z,41.97
2019-03-24T21:16:32.321Z,43.57
2019-03-24T21:19:02.773Z,42.33
2019-03-24T21:21:33.062Z,42.57
2019-03-24T21:24:03.282Z,42.07
2019-03-24T21:26:33.541Z,44.47
2019-03-24T21:29:03.883Z,44.60
2019-03-24T21:31:34.222Z,43.33
2019-03-24T21:34:04.565Z,45.17
2019-03-24T21:36:34.952Z,43.33
2019-03-24T21:39:07.505Z,44.83
2019-03-24T21:41:37.823Z,42.50
2019-03-24T21:44:08.118Z,43.80
2019-03-24T21:46:38.413Z,43.17
2019-03-24T21:49:08.810Z,45.10
2019-03-24T21:51:39.134Z,43.50
2019-03-24T21:54:09.454Z,45.03
2019-03-24T21:56:39.840Z,43.50
2019-03-24T21:59:10.068Z,43.07
2019-03-24T22:01:40.312Z,44.00
2019-03-24T22:04:11.057Z,44.43
2019-03-24T22:06:41.362Z,42.90
2019-03-24T22:09:11.685Z,44.60
2019-03-24T22:11:42.021Z,44.07
2019-03-24T22:14:12.452Z,43.50
2019-03-24T22:16:42.702Z,43.87
2019-03-24T22:19:13.726Z,40.83
2019-03-24T22:21:44.121Z,41.73
2019-03-24T22:24:14.495Z,41.07
2019-03-24T22:26:44.768Z,40.63
2019-03-24T22:29:15.085Z,40.33
2019-03-24T22:31:45.424Z,39.47
2019-03-24T22:34:15.730Z,40.73
2019-03-24T22:36:45.976Z,40.53
2019-03-24T22:39:16.218Z,39.53
2019-03-24T22:41:46.419Z,40.37
2019-03-24T22:44:16.785Z,38.90
2019-03-24T22:46:47.068Z,39.10
2019-03-24T22:49:17.346Z,39.03
2019-03-24T22:51:47.609Z,39.10
2019-03-24T22:54:17.891Z,39.90
2019-03-24T22:56:48.376Z,41.00
2019-03-24T22:59:20.958Z,40.47
2019-03-24T23:01:51.321Z,38.53
2019-03-24T23:04:21.817Z,41.27
2019-03-24T23:06:52.094Z,40.03
2019-03-24T23:09:22.376Z,42.37
2019-03-24T23:11:52.705Z,40.80
2019-03-24T23:14:22.991Z,40.67
2019-03-24T23:16:55.585Z,43.17
2019-03-24T23:19:25.952Z,41.53
2019-03-24T23:21:56.274Z,42.50
2019-03-24T23:24:26.648Z,41.10
2019-03-24T23:26:56.994Z,39.87
2019-03-24T23:29:27.386Z,42.33
2019-03-24T23:31:57.757Z,41.97
2019-03-24T23:34:28.038Z,41.53
2019-03-24T23:36:58.389Z,41.03
2019-03-24T23:39:29.026Z,41.93
2019-03-24T23:41:59.428Z,42.90
2019-03-24T23:44:29.691Z,42.40
2019-03-24T23:47:00.058Z,41.80
2019-03-24T23:49:30.271Z,41.63
2019-03-24T23:52:00.633Z,44.20
2019-03-24T23:54:30.905Z,41.47
2019-03-24T23:57:01.335Z,41.57
2019-03-24T23:59:31.653Z,42.27
